Rechercher aéroport 
image banner adimage banner adimage banner ad
image banner ad

CA95 - St Joseph Medical Center

Situé à Burbank, United States

ICAO - CA95, IATA -

Données fournies par Airmate  

Information générale

Coordonnées: N34°9'19" W118°19'40"
Élévation : 568 feet MSL.
Variation magnétique : 14° East
Voir autres Aéroports à California

Données opérationnelles

Special qualification required
Heure actuelle UTC:
Heure actuelle locale:
Météo à : KBUR - Bob Hope ( 6 km )
METAR: KBUR 292153Z 18008KT 10SM CLR 33/12 A2987 RMK AO2 SLP098 T03280117 $
TAF: KBUR 291736Z 2918/3018 17004KT P6SM SKC FM291900 17009KT P6SM SKC FM300200 13006KT P6SM SKC FM300800 VRB03KT P6SM SKC
Voir NOTAMs / SUP AIP / TFR affectant cet aéroport [VIEW]
Fréquences de communication: [VIEW]

Pistes:

Coordonnées de l'aéroport

Adresse: Burbank United States

Vue satellite de CA95